Time;durP1;ratioP1;P1;durP2;ratioP2;P2;SDS_P1;SDS_P2;PMS_P1;PMS_P2;Temp;Humidity;BMP_temperature;BMP_pressure;BME280_temperature;BME280_humidity;BME280_pressure;Samples;Min_cycle;Max_cycle;Signal;HPM_P1;HPM_P2
2021/12/16 00:03:02;;;;;;;15.03;9.70;;;;;;;5.64;100.00;102214.72;5104638;28;20213;-76
2021/12/16 00:05:48;;;;;;;15.37;9.43;;;;;;;5.65;100.00;102213.88;5094237;28;20194;-74
2021/12/16 00:08:19;;;;;;;15.70;9.63;;;;;;;5.64;100.00;102209.53;5093520;28;20201;-74
2021/12/16 00:10:54;;;;;;;18.30;10.50;;;;;;;5.66;100.00;102213.03;5096192;28;20213;-75
2021/12/16 00:30:06;;;;;;;13.40;8.43;;;;;;;5.06;100.00;102224.72;5096299;28;20291;-75
2021/12/16 00:32:44;;;;;;;17.67;9.63;;;;;;;4.94;100.00;102222.72;5095507;28;20193;-75
2021/12/16 00:35:11;;;;;;;14.13;7.70;;;;;;;4.81;100.00;102223.31;5096038;28;20670;-76
2021/12/16 00:37:38;;;;;;;13.93;8.00;;;;;;;4.66;100.00;102229.88;5099743;28;20296;-74
2021/12/16 00:40:07;;;;;;;15.60;8.00;;;;;;;4.60;100.00;102221.94;5079555;28;20221;-75
2021/12/16 00:42:43;;;;;;;17.40;8.57;;;;;;;4.50;100.00;102225.13;5089120;28;20218;-76
2021/12/16 00:45:31;;;;;;;12.90;7.53;;;;;;;4.39;100.00;102219.72;5097724;28;20289;-76
2021/12/16 00:48:02;;;;;;;12.03;7.73;;;;;;;4.28;100.00;102229.78;5082651;28;20218;-75
2021/12/16 00:56:07;;;;;;;15.57;8.23;;;;;;;4.06;100.00;102230.91;5082642;28;20252;-75
2021/12/16 00:58:43;;;;;;;15.37;8.37;;;;;;;3.97;100.00;102228.09;5086506;28;20202;-76
2021/12/16 01:01:21;;;;;;;15.03;8.37;;;;;;;3.91;100.00;102228.81;5093370;28;20229;-76
2021/12/16 01:03:58;;;;;;;14.53;8.80;;;;;;;3.83;100.00;102225.16;5090548;28;20206;-76
2021/12/16 01:06:48;;;;;;;17.83;8.50;;;;;;;3.82;100.00;102243.16;5092630;28;20210;-75
2021/12/16 01:09:49;;;;;;;20.53;9.03;;;;;;;3.81;100.00;102241.44;5088401;28;20634;-74
2021/12/16 01:34:38;;;;;;;28.47;12.43;;;;;;;4.48;100.00;102252.66;5089548;28;20254;-76
2021/12/16 01:40:08;;;;;;;33.33;14.03;;;;;;;4.59;100.00;102248.63;5091565;28;20224;-75
2021/12/16 01:45:31;;;;;;;32.03;14.47;;;;;;;4.67;100.00;102244.50;5087780;28;20214;-76
2021/12/16 01:51:16;;;;;;;28.90;13.37;;;;;;;4.75;100.00;102239.53;5077465;28;20218;-75
2021/12/16 01:54:14;;;;;;;36.03;15.37;;;;;;;4.79;100.00;102231.00;5089250;28;20293;-75
2021/12/16 01:56:45;;;;;;;34.07;14.03;;;;;;;4.84;100.00;102225.97;5091399;28;20205;-76
2021/12/16 01:59:18;;;;;;;34.87;14.93;;;;;;;4.88;100.00;102222.59;5087799;28;20221;-75
2021/12/16 02:01:44;;;;;;;42.43;16.20;;;;;;;4.94;100.00;102222.72;5092014;28;20843;-76
2021/12/16 02:04:19;;;;;;;40.20;16.10;;;;;;;4.95;100.00;102224.47;5083926;28;20574;-76
2021/12/16 02:07:01;;;;;;;44.77;16.20;;;;;;;5.01;100.00;102227.19;5095419;28;20648;-76
2021/12/16 02:09:34;;;;;;;38.40;15.50;;;;;;;5.07;100.00;102223.91;5085930;28;20222;-76
2021/12/16 02:12:09;;;;;;;40.33;17.03;;;;;;;5.10;100.00;102223.94;5081526;28;20200;-76
2021/12/16 02:28:39;;;;;;;52.10;20.07;;;;;;;5.32;100.00;102212.34;5086726;28;20205;-75
2021/12/16 02:31:30;;;;;;;59.90;19.40;;;;;;;5.32;100.00;102205.47;5098221;28;20230;-76
2021/12/16 02:36:45;;;;;;;54.87;19.30;;;;;;;5.44;100.00;102220.38;5089628;28;20197;-76
2021/12/16 02:39:15;;;;;;;54.37;20.60;;;;;;;5.48;100.00;102214.41;5086515;28;20629;-74
2021/12/16 02:41:45;;;;;;;53.60;20.37;;;;;;;5.49;100.00;102216.16;5089885;28;20287;-75
2021/12/16 02:44:26;;;;;;;66.33;23.10;;;;;;;5.57;100.00;102216.31;5086641;28;20213;-75
2021/12/16 02:49:46;;;;;;;60.93;23.10;;;;;;;5.69;100.00;102220.88;5086421;28;20252;-76
2021/12/16 02:52:15;;;;;;;59.10;22.03;;;;;;;5.70;100.00;102214.84;5089682;28;20190;-76
2021/12/16 02:54:42;;;;;;;59.17;21.43;;;;;;;5.74;100.00;102219.25;5086917;28;20197;-76
2021/12/16 02:57:09;;;;;;;62.90;22.30;;;;;;;5.76;100.00;102225.31;5089323;28;20197;-76
2021/12/16 02:59:37;;;;;;;56.90;22.33;;;;;;;5.79;100.00;102227.97;5096112;28;20221;-76
2021/12/16 03:02:10;;;;;;;55.97;20.97;;;;;;;5.82;100.00;102227.13;5086769;28;20340;-76
2021/12/16 03:04:42;;;;;;;57.53;21.10;;;;;;;5.82;100.00;102227.13;5093093;28;20204;-75
2021/12/16 03:07:12;;;;;;;55.33;21.03;;;;;;;5.81;100.00;102221.09;5093817;28;20197;-76
2021/12/16 03:12:45;;;;;;;50.23;19.83;;;;;;;5.82;100.00;102233.22;5097685;28;20347;-75
2021/12/16 03:15:22;;;;;;;51.20;20.87;;;;;;;5.85;100.00;102240.16;5091732;28;20201;-75
2021/12/16 03:17:56;;;;;;;46.37;19.77;;;;;;;5.86;100.00;102244.50;5092446;28;20206;-76
2021/12/16 03:20:32;;;;;;;49.57;20.43;;;;;;;5.85;100.00;102250.50;5093568;28;20641;-76
2021/12/16 03:23:21;;;;;;;43.00;18.53;;;;;;;5.86;100.00;102252.25;5083015;28;20218;-76
2021/12/16 03:26:04;;;;;;;42.83;19.20;;;;;;;5.86;100.00;102254.84;5092478;28;20262;-76
2021/12/16 03:37:18;;;;;;;44.87;17.80;;;;;;;5.94;100.00;102255.84;5035529;28;20620;-75
2021/12/16 03:39:49;;;;;;;37.60;16.70;;;;;;;5.93;100.00;102253.22;5069401;28;20241;-76
2021/12/16 03:42:20;;;;;;;39.00;17.03;;;;;;;5.94;100.00;102248.06;5092206;28;20225;-76
2021/12/16 03:44:56;;;;;;;35.27;16.83;;;;;;;5.95;100.00;102252.44;5083490;28;20578;-74
2021/12/16 03:47:35;;;;;;;38.77;17.80;;;;;;;5.95;100.00;102251.56;5090695;28;20675;-76
2021/12/16 03:50:06;;;;;;;37.13;17.70;;;;;;;5.98;100.00;102262.88;5089164;28;20691;-75
2021/12/16 03:52:33;;;;;;;29.30;15.27;;;;;;;5.98;100.00;102259.41;5095882;28;20530;-75
2021/12/16 03:55:00;;;;;;;32.73;16.07;;;;;;;6.01;100.00;102256.88;5081812;28;20203;-76
2021/12/16 03:57:31;;;;;;;31.00;15.43;;;;;;;6.00;100.00;102250.84;5090134;28;20271;-75
2021/12/16 03:59:57;;;;;;;33.80;15.37;;;;;;;6.01;100.00;102247.38;5093029;28;20233;-75
2021/12/16 04:02:44;;;;;;;30.37;15.07;;;;;;;5.97;100.00;102243.00;5091043;28;20567;-76
2021/12/16 04:05:13;;;;;;;30.27;15.23;;;;;;;5.98;100.00;102237.00;5092660;28;20271;-76
2021/12/16 04:07:44;;;;;;;31.43;14.77;;;;;;;5.96;100.00;102238.69;5092655;28;20591;-75
2021/12/16 04:10:21;;;;;;;32.70;14.97;;;;;;;5.96;100.00;102240.38;5088034;28;20213;-76
2021/12/16 04:12:50;;;;;;;30.53;14.20;;;;;;;5.95;100.00;102247.25;5087006;28;20254;-76
2021/12/16 04:15:18;;;;;;;28.27;14.10;;;;;;;5.95;100.00;102251.56;5093154;28;20216;-74
2021/12/16 04:17:49;;;;;;;28.10;14.50;;;;;;;5.92;100.00;102249.78;5086686;28;20198;-75
2021/12/16 04:20:16;;;;;;;32.33;14.90;;;;;;;5.89;100.00;102234.16;5098511;28;20711;-74
2021/12/16 04:22:45;;;;;;;26.70;14.60;;;;;;;5.90;100.00;102243.69;5094130;28;20249;-76
2021/12/16 04:25:17;;;;;;;27.37;14.50;;;;;;;5.86;100.00;102234.13;5081247;28;20581;-76
2021/12/16 04:27:49;;;;;;;28.10;14.20;;;;;;;5.87;100.00;102230.69;5100029;28;20201;-75
2021/12/16 04:30:19;;;;;;;33.03;15.33;;;;;;;5.85;100.00;102227.19;5090278;28;20240;-74
2021/12/16 04:32:46;;;;;;;33.77;14.60;;;;;;;5.82;100.00;102238.38;5086482;28;20194;-76
2021/12/16 04:35:16;;;;;;;29.70;14.73;;;;;;;5.80;100.00;102240.03;5085570;28;20207;-75
2021/12/16 04:37:50;;;;;;;30.97;15.07;;;;;;;5.81;100.00;102243.53;5098892;28;20198;-76
2021/12/16 04:40:19;;;;;;;29.13;14.63;;;;;;;5.81;100.00;102243.53;5085232;28;20717;-74
2021/12/16 04:42:52;;;;;;;29.30;13.77;;;;;;;5.83;100.00;102247.00;5087809;28;20226;-75
2021/12/16 04:45:21;;;;;;;28.13;14.27;;;;;;;5.80;100.00;102239.19;5089525;28;20197;-75
2021/12/16 04:47:50;;;;;;;28.93;14.37;;;;;;;5.80;100.00;102244.34;5086885;28;20236;-76
2021/12/16 04:50:18;;;;;;;29.03;13.73;;;;;;;5.83;100.00;102244.44;5086631;28;20213;-74
2021/12/16 04:52:45;;;;;;;31.40;14.13;;;;;;;5.85;100.00;102248.78;5088774;28;20205;-75
2021/12/16 04:55:15;;;;;;;28.77;13.73;;;;;;;5.87;100.00;102262.66;5095847;28;20267;-75
2021/12/16 04:57:45;;;;;;;26.83;13.40;;;;;;;5.86;100.00;102257.44;5088855;28;20259;-75
2021/12/16 05:00:16;;;;;;;25.70;12.77;;;;;;;5.86;100.00;102258.31;5085372;28;20249;-75
2021/12/16 05:02:50;;;;;;;28.43;14.27;;;;;;;5.86;100.00;102262.63;5084352;28;20225;-76
2021/12/16 05:05:49;;;;;;;27.13;14.17;;;;;;;5.86;100.00;102271.25;5083324;28;20773;-75
2021/12/16 05:08:16;;;;;;;33.07;13.83;;;;;;;5.84;100.00;102270.34;5084396;28;20205;-76
2021/12/16 05:10:50;;;;;;;30.00;13.33;;;;;;;5.85;100.00;102264.31;5092357;28;20224;-74
2021/12/16 05:13:23;;;;;;;28.20;13.43;;;;;;;5.86;100.00;102266.06;5082134;28;20285;-75
2021/12/16 05:15:51;;;;;;;29.53;13.50;;;;;;;5.88;100.00;102264.38;5085516;28;20202;-73
2021/12/16 05:18:30;;;;;;;30.23;13.47;;;;;;;5.89;100.00;102267.81;5074513;28;20639;-75
2021/12/16 05:20:59;;;;;;;26.27;13.37;;;;;;;5.90;100.00;102273.91;5085885;28;20223;-75
2021/12/16 05:26:18;;;;;;;26.37;13.43;;;;;;;5.91;100.00;102273.94;5086535;28;20201;-74
2021/12/16 05:28:59;;;;;;;26.47;13.83;;;;;;;5.90;100.00;102267.00;5077600;28;20664;-74
2021/12/16 05:31:30;;;;;;;24.87;13.07;;;;;;;5.90;100.00;102277.34;5076379;28;20667;-75
2021/12/16 05:34:01;;;;;;;31.67;13.97;;;;;;;5.91;100.00;102278.22;5087539;28;20197;-76
2021/12/16 05:36:29;;;;;;;25.93;13.67;;;;;;;5.92;100.00;102279.97;5078333;28;20221;-75
2021/12/16 05:38:56;;;;;;;25.10;12.80;;;;;;;5.91;100.00;102270.44;5076570;28;20197;-76
2021/12/16 05:41:26;;;;;;;28.83;13.43;;;;;;;5.89;100.00;102278.19;5076526;28;20198;-74
2021/12/16 05:43:56;;;;;;;26.97;12.97;;;;;;;5.88;100.00;102272.13;5073024;28;20714;-75
2021/12/16 05:46:25;;;;;;;25.73;12.90;;;;;;;5.86;100.00;102284.19;5077792;28;20720;-76
2021/12/16 05:48:52;;;;;;;27.83;12.47;;;;;;;5.88;100.00;102279.03;5076478;28;20217;-74
2021/12/16 05:51:28;;;;;;;26.37;12.40;;;;;;;5.89;100.00;102280.78;5080801;28;20204;-75
2021/12/16 05:53:58;;;;;;;27.07;12.43;;;;;;;5.89;100.00;102280.78;5074233;28;20197;-75
2021/12/16 05:56:46;;;;;;;28.87;13.73;;;;;;;5.87;100.00;102282.47;5083278;28;20908;-75
2021/12/16 05:59:14;;;;;;;27.63;12.77;;;;;;;5.87;100.00;102280.78;5071994;28;20885;-76
2021/12/16 06:01:43;;;;;;;30.50;13.83;;;;;;;5.85;100.00;102282.44;5079001;28;20247;-75
2021/12/16 06:04:10;;;;;;;26.37;11.60;;;;;;;5.86;100.00;102298.84;5073068;28;20226;-75
2021/12/16 06:06:38;;;;;;;29.50;13.30;;;;;;;5.87;100.00;102298.00;5074072;28;20202;-76
2021/12/16 06:09:07;;;;;;;29.30;12.97;;;;;;;5.87;100.00;102304.06;5089844;28;20518;-75
2021/12/16 06:11:35;;;;;;;23.30;11.97;;;;;;;5.85;100.00;102302.28;5085106;28;20202;-74
2021/12/16 06:14:11;;;;;;;27.67;13.83;;;;;;;5.85;100.00;102297.09;5085576;28;20878;-76
2021/12/16 06:22:30;;;;;;;30.93;13.63;;;;;;;5.83;100.00;102306.56;5074295;28;20194;-75
2021/12/16 06:27:46;;;;;;;26.77;13.47;;;;;;;5.82;100.00;102299.63;5075326;28;20235;-75
2021/12/16 06:30:15;;;;;;;30.70;12.40;;;;;;;5.80;100.00;102301.31;5073033;28;20237;-74
2021/12/16 06:32:42;;;;;;;28.83;13.03;;;;;;;5.78;100.00;102292.63;5071257;28;20555;-76
2021/12/16 06:35:10;;;;;;;27.23;11.93;;;;;;;5.77;100.00;102296.97;5077950;28;20940;-74
2021/12/16 06:37:38;;;;;;;30.60;13.17;;;;;;;5.73;100.00;102295.13;5084312;28;20210;-73
2021/12/16 06:40:15;;;;;;;26.80;12.80;;;;;;;5.74;100.00;102296.03;5076559;28;20228;-74
2021/12/16 06:42:58;;;;;;;25.23;12.93;;;;;;;5.74;100.00;102302.06;5083250;28;20216;-74
2021/12/16 06:45:32;;;;;;;27.30;12.47;;;;;;;5.73;100.00;102305.47;5089745;28;20206;-75
2021/12/16 06:48:03;;;;;;;28.57;12.97;;;;;;;5.72;100.00;102313.22;5092227;28;20202;-75
2021/12/16 06:50:40;;;;;;;32.93;12.93;;;;;;;5.72;100.00;102308.03;5093480;28;20264;-75
2021/12/16 06:53:11;;;;;;;26.70;12.37;;;;;;;5.71;100.00;102317.50;5088223;28;20281;-76
2021/12/16 06:55:43;;;;;;;26.03;12.63;;;;;;;5.70;100.00;102313.19;5090832;28;20213;-76
2021/12/16 06:58:18;;;;;;;32.40;14.60;;;;;;;5.70;100.00;102315.78;5094078;28;20554;-75
2021/12/16 07:00:48;;;;;;;32.57;13.20;;;;;;;5.73;100.00;102315.81;5102965;28;20221;-76
2021/12/16 07:03:21;;;;;;;28.97;13.87;;;;;;;5.74;100.00;102320.19;5097998;28;20232;-74
2021/12/16 07:05:52;;;;;;;25.67;12.43;;;;;;;5.75;100.00;102332.28;5094191;28;20194;-75
2021/12/16 07:08:22;;;;;;;30.67;13.37;;;;;;;5.76;100.00;102331.44;5085047;28;20198;-76
2021/12/16 07:10:55;;;;;;;32.27;13.47;;;;;;;5.80;100.00;102332.38;5088517;28;20221;-75
2021/12/16 07:13:30;;;;;;;26.90;14.03;;;;;;;5.81;100.00;102339.31;5087721;28;20194;-75
2021/12/16 07:15:59;;;;;;;31.17;13.67;;;;;;;5.82;100.00;102343.63;5089091;28;20204;-75
2021/12/16 07:18:25;;;;;;;30.27;13.60;;;;;;;5.82;100.00;102349.69;5099592;28;20208;-75
2021/12/16 07:20:52;;;;;;;27.63;13.37;;;;;;;5.82;100.00;102348.81;5091658;28;20225;-76
2021/12/16 07:23:20;;;;;;;32.20;13.27;;;;;;;5.85;100.00;102352.31;5082218;28;20207;-75
2021/12/16 07:25:46;;;;;;;28.77;13.87;;;;;;;5.85;100.00;102354.91;5092161;28;20715;-76
2021/12/16 07:28:13;;;;;;;28.63;14.73;;;;;;;5.85;100.00;102357.50;5083789;28;20555;-75
2021/12/16 07:30:43;;;;;;;28.60;12.97;;;;;;;5.84;100.00;102357.47;5095971;28;20618;-75
2021/12/16 07:33:12;;;;;;;39.13;13.57;;;;;;;5.83;100.00;102354.00;5091768;28;20716;-76
2021/12/16 07:35:40;;;;;;;28.47;13.60;;;;;;;5.85;100.00;102347.16;5079069;28;20201;-74
2021/12/16 07:38:07;;;;;;;27.53;13.63;;;;;;;5.84;100.00;102344.53;5094070;27;20190;-75
2021/12/16 07:40:38;;;;;;;29.77;13.70;;;;;;;5.81;100.00;102350.53;5095089;28;20630;-74
2021/12/16 07:43:24;;;;;;;26.53;12.60;;;;;;;5.81;100.00;102358.28;5095030;28;20218;-75
2021/12/16 07:45:52;;;;;;;26.23;12.57;;;;;;;5.79;100.00;102361.69;5101259;28;20202;-76
2021/12/16 07:48:20;;;;;;;30.20;13.77;;;;;;;5.79;100.00;102365.16;5092872;28;20245;-74
2021/12/16 07:50:50;;;;;;;27.50;13.43;;;;;;;5.79;100.00;102361.69;5095981;28;20682;-74
2021/12/16 07:53:16;;;;;;;26.53;12.80;;;;;;;5.77;100.00;102366.84;5086122;28;20198;-76
2021/12/16 07:55:47;;;;;;;33.03;13.80;;;;;;;5.80;100.00;102363.44;5097502;28;20280;-76
2021/12/16 07:58:14;;;;;;;27.63;12.60;;;;;;;5.79;100.00;102365.16;5078375;28;20198;-75
2021/12/16 08:00:41;;;;;;;28.17;13.63;;;;;;;5.79;100.00;102357.38;5094418;28;20213;-75
2021/12/16 08:03:10;;;;;;;28.57;13.73;;;;;;;5.80;100.00;102369.47;5087072;28;20702;-75
2021/12/16 08:05:41;;;;;;;31.43;13.77;;;;;;;5.80;100.00;102369.47;5085952;28;20201;-76
2021/12/16 08:08:08;;;;;;;31.13;13.93;;;;;;;5.81;100.00;102373.81;5093578;28;20201;-75
2021/12/16 08:10:36;;;;;;;27.67;13.40;;;;;;;5.80;100.00;102377.25;5088107;28;20251;-75
2021/12/16 08:13:04;;;;;;;33.73;14.03;;;;;;;5.83;100.00;102376.44;5094446;28;20197;-75
2021/12/16 08:15:31;;;;;;;29.20;13.73;;;;;;;5.86;100.00;102379.09;5081466;28;20717;-74
2021/12/16 08:17:58;;;;;;;30.07;15.43;;;;;;;5.88;100.00;102385.19;5090587;28;20198;-75
2021/12/16 08:20:25;;;;;;;34.97;14.60;;;;;;;5.90;100.00;102380.91;5093757;28;21057;-75
2021/12/16 08:22:55;;;;;;;27.83;14.13;;;;;;;5.91;100.00;102389.53;5095184;28;20235;-75
2021/12/16 08:25:24;;;;;;;32.90;14.20;;;;;;;5.93;100.00;102393.03;5095675;28;20212;-75
2021/12/16 08:27:52;;;;;;;29.37;13.50;;;;;;;5.93;100.00;102396.50;5100070;28;20213;-75
2021/12/16 08:30:22;;;;;;;29.80;13.93;;;;;;;5.94;100.00;102405.16;5088420;28;20274;-75
2021/12/16 08:32:49;;;;;;;32.70;13.80;;;;;;;5.94;100.00;102406.00;5093353;28;20865;-76
2021/12/16 08:35:16;;;;;;;29.87;12.27;;;;;;;5.96;100.00;102411.25;5101706;28;20205;-74
2021/12/16 08:37:43;;;;;;;34.30;13.93;;;;;;;5.97;100.00;102400.06;5089476;28;20201;-75
2021/12/16 08:40:13;;;;;;;37.20;17.87;;;;;;;6.00;100.00;102413.09;5090864;28;20214;-75
2021/12/16 08:42:40;;;;;;;28.93;14.20;;;;;;;6.02;100.00;102412.28;5100955;28;20197;-75
2021/12/16 08:45:10;;;;;;;28.20;14.67;;;;;;;6.05;100.00;102419.22;5099499;28;20217;-76
2021/12/16 08:47:38;;;;;;;32.60;14.93;;;;;;;6.05;100.00;102427.00;5090274;28;20201;-76
2021/12/16 08:50:06;;;;;;;25.97;12.70;;;;;;;6.06;100.00;102429.63;5090845;27;20217;-76
2021/12/16 08:52:33;;;;;;;26.03;12.67;;;;;;;6.06;100.00;102434.78;5094866;28;20244;-74
2021/12/16 08:55:00;;;;;;;24.40;12.53;;;;;;;6.06;100.00;102428.75;5086787;28;20555;-75
2021/12/16 08:57:26;;;;;;;21.27;11.90;;;;;;;6.03;100.00;102433.84;5091150;28;20210;-75
2021/12/16 08:59:53;;;;;;;26.47;12.67;;;;;;;6.02;100.00;102443.34;5095476;28;20218;-76
2021/12/16 09:02:20;;;;;;;22.13;11.77;;;;;;;6.01;100.00;102445.91;5095527;28;20196;-75
2021/12/16 09:04:48;;;;;;;22.43;11.57;;;;;;;5.99;100.00;102442.41;5096590;28;20871;-75
2021/12/16 09:07:14;;;;;;;24.37;12.33;;;;;;;5.97;100.00;102441.50;5084883;28;20754;-76
2021/12/16 09:09:43;;;;;;;23.07;11.30;;;;;;;5.98;100.00;102435.47;5081724;28;20218;-76
2021/12/16 09:12:35;;;;;;;22.63;10.33;;;;;;;5.98;100.00;102438.97;5091704;28;20297;-74
2021/12/16 09:15:01;;;;;;;23.10;10.93;;;;;;;5.98;100.00;102446.72;5078143;28;20712;-75
2021/12/16 09:17:28;;;;;;;20.63;12.03;;;;;;;5.98;100.00;102435.47;5077827;28;20217;-75
2021/12/16 09:19:56;;;;;;;24.53;10.97;;;;;;;6.00;100.00;102439.84;5100457;28;20221;-73
2021/12/16 09:22:26;;;;;;;20.53;9.73;;;;;;;6.02;100.00;102435.59;5086397;28;20194;-74
2021/12/16 09:24:53;;;;;;;26.07;14.10;;;;;;;6.06;100.00;102444.28;5081757;28;20218;-76
2021/12/16 09:27:20;;;;;;;22.43;11.47;;;;;;;6.04;100.00;102441.66;5097945;28;20207;-75
2021/12/16 09:29:48;;;;;;;22.60;11.47;;;;;;;6.09;100.00;102436.59;5086545;28;20222;-75
2021/12/16 09:32:15;;;;;;;21.07;10.83;;;;;;;6.10;100.00;102435.72;5078882;28;20210;-75
2021/12/16 09:34:44;;;;;;;20.17;11.53;;;;;;;6.12;100.00;102434.06;5087180;28;20561;-75
2021/12/16 09:37:12;;;;;;;20.93;11.57;;;;;;;6.11;100.00;102439.22;5091586;28;20194;-76
2021/12/16 09:39:39;;;;;;;22.87;10.87;;;;;;;6.11;100.00;102439.22;5093167;28;20214;-75
2021/12/16 09:42:09;;;;;;;18.80;10.63;;;;;;;6.10;100.00;102435.72;5078094;28;20683;-76
2021/12/16 09:44:36;;;;;;;21.67;11.03;;;;;;;6.12;100.00;102444.44;5098679;28;20220;-74
2021/12/16 09:47:07;;;;;;;19.70;9.67;;;;;;;6.14;100.00;102439.25;5099089;28;20193;-76
2021/12/16 09:49:34;;;;;;;19.23;10.53;;;;;;;6.11;100.00;102442.66;5092470;28;20225;-73
2021/12/16 09:52:01;;;;;;;18.20;10.10;;;;;;;6.13;100.00;102435.81;5094794;28;20193;-75
2021/12/16 09:54:32;;;;;;;21.23;10.73;;;;;;;6.15;100.00;102435.84;5093675;28;20549;-75
2021/12/16 09:56:59;;;;;;;18.23;10.03;;;;;;;6.16;100.00;102447.97;5097274;28;20197;-75
2021/12/16 09:59:28;;;;;;;15.63;9.40;;;;;;;6.17;100.00;102452.28;5100336;28;20230;-75
2021/12/16 10:01:58;;;;;;;19.93;10.80;;;;;;;6.20;100.00;102455.81;5094880;28;20205;-75
2021/12/16 10:04:31;;;;;;;19.13;10.30;;;;;;;6.21;100.00;102459.31;5092458;28;20221;-75
2021/12/16 10:07:00;;;;;;;13.93;9.00;;;;;;;6.21;100.00;102452.41;5082539;28;20244;-75
2021/12/16 10:09:27;;;;;;;17.53;10.37;;;;;;;6.23;100.00;102461.06;5090610;28;20219;-75
2021/12/16 10:11:58;;;;;;;16.40;10.03;;;;;;;6.27;100.00;102468.91;5085859;28;20640;-75
2021/12/16 10:14:45;;;;;;;21.07;9.77;;;;;;;6.30;100.00;102480.22;5081099;28;20205;-75
2021/12/16 10:17:23;;;;;;;17.67;9.57;;;;;;;6.32;100.00;102472.47;5081711;28;20235;-76
2021/12/16 10:19:50;;;;;;;17.17;9.60;;;;;;;6.35;100.00;102480.28;5090016;28;20230;-76
2021/12/16 10:22:23;;;;;;;22.97;12.30;;;;;;;6.38;100.00;102480.34;5095528;28;20673;-75
2021/12/16 10:24:52;;;;;;;18.37;10.50;;;;;;;6.39;100.00;102489.91;5087005;28;20224;-75
2021/12/16 10:27:24;;;;;;;25.37;12.20;;;;;;;6.40;100.00;102483.84;5097323;27;20197;-75
2021/12/16 10:29:57;;;;;;;17.27;9.87;;;;;;;6.40;100.00;102473.47;5104356;28;20223;-76
2021/12/16 10:32:34;;;;;;;21.40;11.17;;;;;;;6.43;100.00;102474.41;5083580;28;20191;-76
2021/12/16 10:35:06;;;;;;;20.13;11.97;;;;;;;6.48;100.00;102463.28;5089767;28;20196;-76
2021/12/16 10:37:36;;;;;;;16.83;8.87;;;;;;;6.50;100.00;102465.06;5089106;28;20199;-76
2021/12/16 10:40:33;;;;;;;15.43;9.03;;;;;;;6.50;100.00;102462.47;5089026;28;20214;-76
2021/12/16 10:43:05;;;;;;;14.97;8.83;;;;;;;6.52;100.00;102470.28;5095823;28;20198;-74
2021/12/16 10:45:34;;;;;;;15.37;9.10;;;;;;;6.52;100.00;102481.50;5094221;28;20218;-76
2021/12/16 10:48:10;;;;;;;14.70;8.17;;;;;;;6.53;100.00;102479.81;5099945;28;20213;-76
2021/12/16 10:50:51;;;;;;;14.57;8.70;;;;;;;6.50;100.00;102490.97;5086413;28;20221;-74
2021/12/16 10:53:39;;;;;;;18.27;10.17;;;;;;;6.53;100.00;102495.38;5085857;28;20203;-76
2021/12/16 10:56:07;;;;;;;15.73;8.10;;;;;;;6.51;100.00;102502.22;5087720;28;20207;-76
2021/12/16 10:58:50;;;;;;;15.70;8.00;;;;;;;6.53;100.00;102490.19;5094288;28;20548;-76
2021/12/16 11:01:42;;;;;;;14.80;8.03;;;;;;;6.53;100.00;102508.31;5091900;28;20214;-74
2021/12/16 11:04:13;;;;;;;11.90;7.63;;;;;;;6.52;100.00;102463.38;5090895;28;20606;-75
2021/12/16 11:06:43;;;;;;;14.30;9.40;;;;;;;6.54;100.00;102455.63;5091740;28;20296;-76
2021/12/16 11:09:47;;;;;;;15.47;8.93;;;;;;;6.53;100.00;102459.09;5093305;28;20205;-75
2021/12/16 11:12:22;;;;;;;11.83;8.03;;;;;;;6.54;100.00;102473.78;5092572;28;20202;-75
2021/12/16 11:14:51;;;;;;;14.93;8.87;;;;;;;6.57;100.00;102473.84;5090251;28;20228;-75
2021/12/16 11:17:20;;;;;;;13.77;8.27;;;;;;;6.55;100.00;102468.63;5092041;28;20289;-73
2021/12/16 11:19:51;;;;;;;13.77;7.87;;;;;;;6.56;100.00;102478.16;5096462;28;20214;-76
2021/12/16 11:22:23;;;;;;;13.90;8.50;;;;;;;6.58;100.00;102480.78;5091840;28;20199;-75
2021/12/16 11:24:52;;;;;;;16.10;8.40;;;;;;;6.59;100.00;102479.91;5084853;28;20217;-76
2021/12/16 11:27:23;;;;;;;12.43;8.40;;;;;;;6.59;100.00;102479.91;5085611;28;20571;-75
2021/12/16 11:29:50;;;;;;;11.67;7.10;;;;;;;6.59;100.00;102478.19;5102551;28;20698;-76
2021/12/16 11:32:41;;;;;;;15.43;8.40;;;;;;;6.63;100.00;102472.25;5094340;28;20197;-74
2021/12/16 11:35:28;;;;;;;15.00;8.27;;;;;;;6.64;100.00;102470.53;5092468;28;20527;-76
2021/12/16 11:37:57;;;;;;;13.30;7.33;;;;;;;6.62;100.00;102470.50;5080222;28;20666;-76
2021/12/16 11:40:26;;;;;;;11.53;7.03;;;;;;;6.64;100.00;102473.13;5094520;28;20609;-76
2021/12/16 11:43:03;;;;;;;12.97;7.50;;;;;;;6.66;100.00;102470.56;5095209;28;20206;-76
2021/12/16 11:45:35;;;;;;;12.67;7.70;;;;;;;6.67;100.00;102477.50;5103777;28;20578;-76
2021/12/16 11:48:02;;;;;;;10.17;6.87;;;;;;;6.64;100.00;102471.38;5087183;28;20213;-76
2021/12/16 11:50:37;;;;;;;10.87;7.60;;;;;;;6.63;100.00;102477.44;5092651;28;20574;-76
2021/12/16 11:53:04;;;;;;;10.33;7.03;;;;;;;6.62;100.00;102477.41;5090840;28;20196;-76
2021/12/16 11:55:36;;;;;;;13.67;7.27;;;;;;;6.62;100.00;102474.81;5090221;28;20207;-76
2021/12/16 11:58:06;;;;;;;13.10;7.83;;;;;;;6.64;100.00;102481.75;5091499;28;20678;-75
2021/12/16 12:00:35;;;;;;;11.53;7.00;;;;;;;6.64;100.00;102468.78;5094368;28;20226;-75
2021/12/16 12:03:07;;;;;;;16.10;10.03;;;;;;;6.65;100.00;102469.69;5085043;28;20213;-76
2021/12/16 12:05:39;;;;;;;9.33;6.90;;;;;;;6.67;100.00;102477.50;5095850;28;20222;-75
2021/12/16 12:08:08;;;;;;;10.17;7.30;;;;;;;6.66;100.00;102474.00;5094807;28;20242;-74
2021/12/16 12:10:42;;;;;;;12.23;8.30;;;;;;;6.69;100.00;102474.06;5094910;28;20774;-75
2021/12/16 12:13:13;;;;;;;12.80;6.73;;;;;;;6.70;100.00;102485.31;5088652;28;20198;-75
2021/12/16 12:15:54;;;;;;;10.23;6.73;;;;;;;6.69;100.00;102487.03;5094261;28;20219;-75
2021/12/16 12:18:37;;;;;;;10.00;6.80;;;;;;;6.72;100.00;102487.09;5097753;28;20197;-75
2021/12/16 12:21:24;;;;;;;8.10;5.87;;;;;;;6.72;100.00;102499.19;5087793;28;20220;-76
2021/12/16 12:23:53;;;;;;;10.13;6.27;;;;;;;6.72;100.00;102500.06;5099394;28;20218;-76
2021/12/16 12:26:20;;;;;;;9.93;6.50;;;;;;;6.73;100.00;102506.13;5102116;28;20213;-76
2021/12/16 12:28:52;;;;;;;10.27;6.33;;;;;;;6.72;100.00;102496.59;5103081;28;20206;-76
2021/12/16 12:31:22;;;;;;;13.27;6.60;;;;;;;6.71;100.00;102493.13;5097618;28;20206;-76
2021/12/16 12:33:49;;;;;;;10.33;6.10;;;;;;;6.71;100.00;102493.13;5094205;28;20199;-76
2021/12/16 12:36:17;;;;;;;11.80;6.77;;;;;;;6.72;100.00;102489.69;5093410;28;20198;-76
2021/12/16 12:38:44;;;;;;;10.33;6.13;;;;;;;6.71;100.00;102493.13;5087125;28;20200;-76
2021/12/16 12:41:11;;;;;;;9.63;6.53;;;;;;;6.72;100.00;102492.28;5092963;28;20224;-75
2021/12/16 12:43:38;;;;;;;10.13;7.03;;;;;;;6.71;100.00;102495.72;5095913;28;20203;-75
2021/12/16 12:46:07;;;;;;;10.13;5.87;;;;;;;6.71;100.00;102500.91;5093206;28;20209;-75
2021/12/16 12:48:35;;;;;;;8.97;6.20;;;;;;;6.70;100.00;102498.28;5082325;28;20212;-76
2021/12/16 12:51:05;;;;;;;10.77;6.30;;;;;;;6.70;100.00;102500.88;5085718;28;20219;-76
2021/12/16 12:53:34;;;;;;;10.80;6.90;;;;;;;6.69;100.00;102499.13;5090541;28;20240;-76
2021/12/16 12:56:10;;;;;;;10.20;6.87;;;;;;;6.69;100.00;102507.78;5095467;28;20204;-74
2021/12/16 12:58:58;;;;;;;11.87;7.13;;;;;;;6.68;100.00;102508.59;5094019;28;20662;-75
2021/12/16 13:01:39;;;;;;;12.90;7.00;;;;;;;6.69;100.00;102518.16;5085144;28;20212;-73
2021/12/16 13:04:09;;;;;;;10.50;6.57;;;;;;;6.68;100.00;102502.56;5089987;28;20190;-76
2021/12/16 13:06:59;;;;;;;9.67;6.50;;;;;;;6.66;100.00;102499.94;5095412;28;20214;-76
2021/12/16 13:09:33;;;;;;;10.03;6.77;;;;;;;6.67;100.00;102512.06;5088912;28;20635;-75
2021/12/16 13:12:02;;;;;;;9.70;7.00;;;;;;;6.64;100.00;102510.25;5093899;28;20213;-76